Time;durP1;ratioP1;P1;durP2;ratioP2;P2;SDS_P1;SDS_P2;PMS_P1;PMS_P2;Temp;Humidity;BMP_temperature;BMP_pressure;BME280_temperature;BME280_humidity;BME280_pressure;Samples;Min_cycle;Max_cycle;Signal;HPM_P1;HPM_P2
2022/09/11 00:01:10;;;;;;;10.77;9.30;;;16.50;99.90;;;;;;5040003;28;20029;-58
2022/09/11 00:03:36;;;;;;;12.50;11.05;;;16.50;99.90;;;;;;5047907;28;20025;-58
2022/09/11 00:06:07;;;;;;;11.52;10.25;;;16.50;99.90;;;;;;5045113;28;20032;-58
2022/09/11 00:08:33;;;;;;;14.40;10.27;;;16.50;99.90;;;;;;5031621;28;20027;-58
2022/09/11 00:11:21;;;;;;;12.32;10.57;;;16.50;99.90;;;;;;5038075;28;20033;-58
2022/09/11 00:13:50;;;;;;;13.13;10.52;;;16.50;99.90;;;;;;5039134;28;20057;-58
2022/09/11 00:16:35;;;;;;;10.93;9.30;;;16.40;99.90;;;;;;5044143;28;20070;-58
2022/09/11 00:19:12;;;;;;;14.07;9.60;;;16.40;99.90;;;;;;5046988;28;20325;-58
2022/09/11 00:21:38;;;;;;;10.57;8.88;;;16.40;99.90;;;;;;5042176;28;20030;-58
2022/09/11 00:24:04;;;;;;;12.65;10.57;;;16.30;99.90;;;;;;5057362;28;20028;-58
2022/09/11 00:26:30;;;;;;;14.90;10.68;;;16.30;99.90;;;;;;5046117;28;20031;-58
2022/09/11 00:28:56;;;;;;;11.07;9.98;;;16.30;99.90;;;;;;5039800;28;20074;-58
2022/09/11 00:31:27;;;;;;;12.23;10.50;;;16.30;99.90;;;;;;5033721;28;20037;-58
2022/09/11 00:33:55;;;;;;;11.13;9.30;;;16.20;99.90;;;;;;5043734;28;20033;-58
2022/09/11 00:36:30;;;;;;;10.32;9.23;;;16.20;99.90;;;;;;5035839;28;20036;-58
2022/09/11 00:38:57;;;;;;;11.00;8.68;;;16.20;99.90;;;;;;5040165;28;20064;-58
2022/09/11 00:41:26;;;;;;;9.30;8.15;;;16.10;99.90;;;;;;5046223;28;20322;-58
2022/09/11 00:43:59;;;;;;;8.90;7.65;;;16.10;99.90;;;;;;5043526;28;20056;-58
2022/09/11 00:46:49;;;;;;;10.65;8.70;;;16.10;99.90;;;;;;5040979;28;20541;-59
2022/09/11 00:49:31;;;;;;;12.00;8.77;;;16.10;99.90;;;;;;5044640;28;20112;-58
2022/09/11 00:52:09;;;;;;;10.90;9.32;;;16.00;99.90;;;;;;5043542;28;20028;-58
2022/09/11 00:54:41;;;;;;;12.65;10.20;;;15.90;99.90;;;;;;5046607;28;20037;-58
2022/09/11 00:57:08;;;;;;;10.55;9.50;;;15.90;99.90;;;;;;5045012;28;20088;-58
2022/09/11 00:59:36;;;;;;;12.02;7.70;;;15.90;99.90;;;;;;5042517;28;20035;-58
2022/09/11 01:02:03;;;;;;;6.55;5.40;;;15.80;99.90;;;;;;5045128;28;20021;-58
2022/09/11 01:04:28;;;;;;;6.18;5.57;;;15.70;99.90;;;;;;5064588;28;20021;-58
2022/09/11 01:06:58;;;;;;;7.00;6.30;;;15.70;99.90;;;;;;5042963;28;20179;-58
2022/09/11 01:09:26;;;;;;;7.72;6.15;;;15.70;99.90;;;;;;5038392;28;20131;-58
2022/09/11 01:12:24;;;;;;;8.82;7.82;;;15.70;99.90;;;;;;5033998;28;20026;-58
2022/09/11 01:15:02;;;;;;;9.55;7.00;;;15.70;99.90;;;;;;5048038;28;20075;-58
2022/09/11 01:17:58;;;;;;;8.32;7.35;;;15.60;99.90;;;;;;5046275;28;20025;-59
2022/09/11 01:20:32;;;;;;;8.00;7.15;;;15.60;99.90;;;;;;5042655;28;20036;-58
2022/09/11 01:23:21;;;;;;;8.45;7.60;;;15.60;99.90;;;;;;5050621;28;20427;-58
2022/09/11 01:26:23;;;;;;;8.73;7.22;;;15.60;99.90;;;;;;5045124;28;20022;-58
2022/09/11 01:29:00;;;;;;;8.57;7.68;;;15.50;99.90;;;;;;5036756;28;20539;-58
2022/09/11 01:31:32;;;;;;;8.82;7.38;;;15.50;99.90;;;;;;5040272;28;20048;-58
2022/09/11 01:34:32;;;;;;;8.93;8.02;;;15.40;99.90;;;;;;5038714;28;20084;-58
2022/09/11 01:37:04;;;;;;;9.82;8.65;;;15.40;99.90;;;;;;5039021;28;20400;-58
2022/09/11 01:39:37;;;;;;;10.25;8.77;;;15.30;99.90;;;;;;5038810;28;20037;-58
2022/09/11 01:42:13;;;;;;;11.55;7.40;;;15.30;99.90;;;;;;5034097;28;20025;-58
2022/09/11 01:44:47;;;;;;;9.48;8.50;;;15.30;99.90;;;;;;5041436;28;20029;-58
2022/09/11 01:47:25;;;;;;;8.45;7.53;;;15.20;99.90;;;;;;5045325;28;20550;-58
2022/09/11 01:50:02;;;;;;;8.20;7.38;;;15.20;99.90;;;;;;5047621;28;20025;-58
2022/09/11 01:52:52;;;;;;;10.27;8.07;;;15.20;99.90;;;;;;5041035;28;20196;-58
2022/09/11 01:55:27;;;;;;;8.00;7.20;;;15.20;99.90;;;;;;5051826;28;20095;-58
2022/09/11 01:58:08;;;;;;;6.88;6.28;;;15.20;99.90;;;;;;5040148;28;20021;-58
2022/09/11 02:00:35;;;;;;;8.65;6.32;;;15.20;99.90;;;;;;5046190;28;20029;-58
2022/09/11 02:03:36;;;;;;;8.50;7.13;;;15.10;99.90;;;;;;5036181;28;20029;-58
2022/09/11 02:06:09;;;;;;;10.40;8.07;;;15.10;99.90;;;;;;5021635;28;20062;-58
2022/09/11 02:08:46;;;;;;;10.25;9.18;;;15.10;99.90;;;;;;5042499;28;20625;-58
2022/09/11 02:11:14;;;;;;;10.43;8.23;;;15.10;99.90;;;;;;5041343;28;20117;-58
2022/09/11 02:14:02;;;;;;;9.85;8.82;;;15.10;99.90;;;;;;5040909;28;20052;-58
2022/09/11 02:16:57;;;;;;;11.75;8.35;;;15.10;99.90;;;;;;5038951;28;20411;-58
2022/09/11 02:19:25;;;;;;;10.15;5.55;;;15.10;99.90;;;;;;5044403;28;20552;-58
2022/09/11 02:21:59;;;;;;;9.68;3.78;;;15.00;99.90;;;;;;5051796;28;20388;-58
2022/09/11 02:24:27;;;;;;;17.10;4.03;;;14.90;99.90;;;;;;5042248;28;20100;-59
2022/09/11 02:26:59;;;;;;;33.22;4.82;;;14.90;99.90;;;;;;5058038;28;20711;-58
2022/09/11 02:29:25;;;;;;;53.30;5.18;;;14.80;99.90;;;;;;5044940;28;20029;-59
2022/09/11 02:31:51;;;;;;;36.33;5.22;;;14.80;99.90;;;;;;5044056;28;20028;-58
2022/09/11 02:34:25;;;;;;;19.77;4.80;;;14.70;99.90;;;;;;5041474;28;20032;-59
2022/09/11 02:37:09;;;;;;;6.97;4.47;;;14.70;99.90;;;;;;5046684;28;20135;-58
2022/09/11 02:40:02;;;;;;;9.68;3.97;;;14.60;99.90;;;;;;5037901;28;20076;-58
2022/09/11 02:42:42;;;;;;;12.23;2.75;;;14.50;99.90;;;;;;5059699;28;20056;-58
2022/09/11 02:45:40;;;;;;;8.90;2.63;;;14.40;99.90;;;;;;5041774;28;20025;-58
2022/09/11 02:48:23;;;;;;;3.50;3.20;;;14.30;99.90;;;;;;5037891;28;20019;-58
2022/09/11 02:51:00;;;;;;;4.32;3.10;;;14.20;99.90;;;;;;5047536;28;20017;-58
2022/09/11 02:53:42;;;;;;;4.32;3.40;;;14.20;99.90;;;;;;5045878;28;20021;-58
2022/09/11 02:56:15;;;;;;;7.90;3.33;;;14.20;99.90;;;;;;5041145;28;20025;-58
2022/09/11 02:59:00;;;;;;;6.60;3.25;;;14.20;99.90;;;;;;5044585;28;20790;-59
2022/09/11 03:01:28;;;;;;;3.83;2.58;;;14.20;99.90;;;;;;5042534;28;20021;-59
2022/09/11 03:03:54;;;;;;;4.65;2.70;;;14.20;99.90;;;;;;5050378;28;20029;-58
2022/09/11 03:06:24;;;;;;;8.27;2.83;;;14.20;99.90;;;;;;5038765;28;20032;-58
2022/09/11 03:08:50;;;;;;;4.97;4.28;;;14.20;99.90;;;;;;5041595;28;20014;-58
2022/09/11 03:11:16;;;;;;;7.88;6.28;;;14.20;99.90;;;;;;5042227;28;20021;-58
2022/09/11 03:13:43;;;;;;;7.80;6.85;;;14.30;99.90;;;;;;5043552;28;20493;-58
2022/09/11 03:16:09;;;;;;;8.13;7.25;;;14.30;99.90;;;;;;5047507;28;20468;-58
2022/09/11 03:18:34;;;;;;;7.05;6.10;;;14.30;99.90;;;;;;5043927;28;20036;-59
2022/09/11 03:21:10;;;;;;;7.15;6.30;;;14.30;99.90;;;;;;5043322;28;20032;-59
2022/09/11 03:23:35;;;;;;;7.93;7.13;;;14.30;99.90;;;;;;5056276;28;20154;-58
2022/09/11 03:26:01;;;;;;;8.75;7.85;;;14.30;99.90;;;;;;5039454;28;20013;-58
2022/09/11 03:28:26;;;;;;;9.85;7.00;;;14.30;99.90;;;;;;5061810;28;20025;-58
2022/09/11 03:31:27;;;;;;;10.60;6.13;;;14.20;99.90;;;;;;5046139;28;20488;-58
2022/09/11 03:33:58;;;;;;;6.10;5.38;;;14.20;99.90;;;;;;5043934;28;20025;-59
2022/09/11 03:36:26;;;;;;;6.20;4.40;;;14.10;99.90;;;;;;5046216;28;20029;-58
2022/09/11 03:38:53;;;;;;;5.32;4.13;;;14.10;99.90;;;;;;5036978;28;20048;-58
2022/09/11 03:41:20;;;;;;;4.05;3.50;;;14.10;99.90;;;;;;5040623;28;20031;-58
2022/09/11 03:43:46;;;;;;;4.43;3.53;;;14.00;99.90;;;;;;5040872;28;20029;-58
2022/09/11 03:46:16;;;;;;;14.80;2.90;;;14.00;99.90;;;;;;5039172;28;20013;-58
2022/09/11 03:48:45;;;;;;;28.20;3.42;;;14.00;99.90;;;;;;5034001;28;20028;-58
2022/09/11 03:51:12;;;;;;;22.90;3.30;;;13.90;99.90;;;;;;5041500;28;20026;-58
2022/09/11 03:53:38;;;;;;;27.77;3.38;;;13.90;99.90;;;;;;5044583;28;20260;-58
2022/09/11 03:56:03;;;;;;;36.88;5.00;;;13.80;99.90;;;;;;5041250;28;20084;-58
2022/09/11 03:58:29;;;;;;;12.45;4.35;;;13.80;99.90;;;;;;5040027;28;20057;-58
2022/09/11 04:00:58;;;;;;;12.60;4.50;;;13.80;99.90;;;;;;5044239;28;20049;-59
2022/09/11 04:03:24;;;;;;;15.68;3.83;;;13.80;99.90;;;;;;5042092;28;20127;-58
2022/09/11 04:06:03;;;;;;;15.50;3.83;;;13.80;99.90;;;;;;5044623;28;20051;-59
2022/09/11 04:08:32;;;;;;;8.40;3.38;;;13.80;99.90;;;;;;5039203;28;20451;-58
2022/09/11 04:11:00;;;;;;;9.35;3.90;;;13.70;99.90;;;;;;5044875;28;20070;-58
2022/09/11 04:13:30;;;;;;;3.60;3.30;;;13.70;99.90;;;;;;5045237;28;20024;-58
2022/09/11 04:16:18;;;;;;;4.85;3.58;;;13.70;99.90;;;;;;5046449;28;20039;-58
2022/09/11 04:18:45;;;;;;;16.85;3.92;;;13.70;99.90;;;;;;5043700;28;20020;-58
2022/09/11 04:21:14;;;;;;;4.65;4.15;;;13.70;99.90;;;;;;5043794;28;20131;-58
2022/09/11 04:23:40;;;;;;;6.40;4.35;;;13.70;99.90;;;;;;5057663;28;20063;-58
2022/09/11 04:26:17;;;;;;;4.60;4.20;;;13.70;99.90;;;;;;5050928;28;20063;-58
2022/09/11 04:28:43;;;;;;;7.43;4.07;;;13.80;99.90;;;;;;5044851;28;20067;-58
2022/09/11 04:31:09;;;;;;;4.90;4.47;;;13.80;99.90;;;;;;5041475;28;20477;-58
2022/09/11 04:33:35;;;;;;;16.65;5.40;;;13.80;99.90;;;;;;5034790;28;20207;-58
2022/09/11 04:36:08;;;;;;;13.40;5.82;;;13.80;99.90;;;;;;5046523;28;20114;-57
2022/09/11 04:38:42;;;;;;;9.57;6.05;;;13.80;99.90;;;;;;5043117;28;20071;-58
2022/09/11 04:41:17;;;;;;;10.30;5.72;;;13.80;99.90;;;;;;5045101;28;20029;-58
2022/09/11 04:43:43;;;;;;;13.52;5.43;;;13.80;99.90;;;;;;5044143;28;20036;-58
2022/09/11 04:46:14;;;;;;;16.77;5.75;;;13.70;99.90;;;;;;5044946;28;20014;-58
2022/09/11 04:48:54;;;;;;;9.82;5.28;;;13.70;99.90;;;;;;5053172;28;20027;-58
2022/09/11 04:51:21;;;;;;;6.95;4.70;;;13.70;99.90;;;;;;5053251;28;20065;-58
2022/09/11 04:53:52;;;;;;;6.85;5.10;;;13.60;99.90;;;;;;5044832;28;20444;-58
2022/09/11 04:59:18;;;;;;;5.38;4.88;;;13.60;99.90;;;;;;5044974;28;20095;-58
2022/09/11 05:01:45;;;;;;;5.18;4.68;;;13.60;99.90;;;;;;5044998;28;20021;-57
2022/09/11 05:04:11;;;;;;;7.00;5.43;;;13.60;99.90;;;;;;5055084;28;20025;-58
2022/09/11 05:06:37;;;;;;;6.03;5.43;;;13.60;99.90;;;;;;5053802;28;20017;-58
2022/09/11 05:09:05;;;;;;;6.57;5.88;;;13.60;99.90;;;;;;5054796;28;20450;-58
2022/09/11 05:11:32;;;;;;;7.10;6.38;;;13.60;99.90;;;;;;5043044;28;20510;-58
2022/09/11 05:13:58;;;;;;;12.20;6.45;;;13.60;99.90;;;;;;5053228;28;20491;-58
2022/09/11 05:16:25;;;;;;;14.05;6.53;;;13.60;99.90;;;;;;5054885;28;20025;-58
2022/09/11 05:18:52;;;;;;;13.38;7.35;;;13.60;99.90;;;;;;5054501;28;20067;-58
2022/09/11 05:21:19;;;;;;;9.65;6.32;;;13.60;99.90;;;;;;5043353;28;20421;-58
2022/09/11 05:23:49;;;;;;;8.90;7.50;;;13.60;99.90;;;;;;5051750;28;20045;-58
2022/09/11 05:26:20;;;;;;;7.53;6.82;;;13.60;99.90;;;;;;5053355;28;20028;-58
2022/09/11 05:28:56;;;;;;;7.95;6.80;;;13.60;99.90;;;;;;5054563;28;20062;-58
2022/09/11 05:31:22;;;;;;;12.40;7.57;;;13.60;99.90;;;;;;5053320;28;20029;-58
2022/09/11 05:33:48;;;;;;;15.13;7.72;;;13.50;99.90;;;;;;5054431;28;20048;-58
2022/09/11 05:36:25;;;;;;;11.73;7.70;;;13.60;99.90;;;;;;5050401;28;20133;-58
2022/09/11 05:38:53;;;;;;;16.92;8.50;;;13.50;99.90;;;;;;5048280;28;20048;-58
2022/09/11 05:41:21;;;;;;;17.88;8.40;;;13.50;99.90;;;;;;5052775;28;20484;-59
2022/09/11 05:43:47;;;;;;;11.82;8.55;;;13.50;99.90;;;;;;5053968;28;20441;-58
2022/09/11 05:46:24;;;;;;;13.75;8.10;;;13.50;99.90;;;;;;5052643;28;20045;-58
2022/09/11 05:48:58;;;;;;;17.42;7.22;;;13.60;99.90;;;;;;5054010;28;20087;-58
2022/09/11 05:51:28;;;;;;;10.07;6.75;;;13.50;99.90;;;;;;5042194;28;20025;-57
2022/09/11 05:53:56;;;;;;;19.45;6.72;;;13.60;99.90;;;;;;5053566;28;20531;-58
2022/09/11 05:56:28;;;;;;;7.53;6.75;;;13.60;99.90;;;;;;5053307;28;20162;-58
2022/09/11 05:58:53;;;;;;;9.45;7.28;;;13.60;99.90;;;;;;5042044;28;20028;-58
2022/09/11 06:01:27;;;;;;;9.40;5.97;;;13.60;99.90;;;;;;5052590;28;20056;-57
2022/09/11 06:03:56;;;;;;;11.55;5.78;;;13.60;99.90;;;;;;5048381;28;20108;-58
2022/09/11 06:06:23;;;;;;;10.38;4.85;;;13.60;99.90;;;;;;5048037;28;20096;-58
2022/09/11 06:08:50;;;;;;;10.38;4.28;;;13.70;99.90;;;;;;5043675;28;20030;-58
2022/09/11 06:11:17;;;;;;;16.75;5.18;;;13.70;99.90;;;;;;5052282;28;20021;-58
2022/09/11 06:13:55;;;;;;;11.82;5.30;;;13.80;99.90;;;;;;5052230;28;20112;-58
2022/09/11 06:16:29;;;;;;;5.57;5.07;;;13.80;99.90;;;;;;5052238;28;20025;-58
2022/09/11 06:18:59;;;;;;;7.90;4.97;;;13.90;99.90;;;;;;5052024;28;20119;-58
2022/09/11 06:21:28;;;;;;;6.25;5.65;;;13.90;99.90;;;;;;5051682;28;20086;-58
2022/09/11 06:23:59;;;;;;;13.60;5.75;;;14.00;99.90;;;;;;5051124;28;20074;-58
2022/09/11 06:26:25;;;;;;;8.57;5.65;;;14.00;99.90;;;;;;5049653;28;20017;-58
2022/09/11 06:28:52;;;;;;;8.88;5.80;;;14.10;99.90;;;;;;5049201;28;20060;-57
2022/09/11 06:31:20;;;;;;;8.50;5.97;;;14.10;99.90;;;;;;5050426;28;20070;-58
2022/09/11 06:33:55;;;;;;;7.25;4.95;;;14.20;99.90;;;;;;5051819;28;20096;-57
2022/09/11 06:36:25;;;;;;;14.75;5.15;;;14.20;99.90;;;;;;5049361;28;20503;-57
2022/09/11 06:38:53;;;;;;;5.40;4.90;;;14.20;99.90;;;;;;5051561;28;20128;-57
2022/09/11 06:41:19;;;;;;;8.20;5.35;;;14.30;99.90;;;;;;5050512;28;20028;-58
2022/09/11 06:43:45;;;;;;;9.52;6.72;;;14.30;99.90;;;;;;5051846;28;20017;-58
2022/09/11 06:46:16;;;;;;;11.15;8.77;;;14.30;99.90;;;;;;5050711;28;20032;-58
2022/09/11 06:48:46;;;;;;;7.32;6.53;;;14.30;99.90;;;;;;5046788;28;20025;-58
2022/09/11 06:51:19;;;;;;;10.05;9.07;;;14.30;99.90;;;;;;5050416;28;20048;-58
2022/09/11 06:53:46;;;;;;;11.32;10.20;;;14.30;99.90;;;;;;5065077;28;20024;-58
2022/09/11 06:56:25;;;;;;;14.45;10.95;;;14.40;99.90;;;;;;5046403;28;20370;-57
2022/09/11 06:58:51;;;;;;;;;;;14.30;99.90;;;;;;5049761;28;20141;-57
2022/09/11 07:01:21;;;;;;;10.77;8.82;;;14.20;99.90;;;;;;5049976;28;20073;-58
2022/09/11 07:03:48;;;;;;;;;;;14.30;99.90;;;;;;5047796;28;20023;-58
2022/09/11 07:06:15;;;;;;;10.07;7.15;;;14.40;99.90;;;;;;5050939;28;19993;-57
2022/09/11 07:08:49;;;;;;;18.05;6.85;;;14.50;99.90;;;;;;5045113;28;20384;-58
2022/09/11 07:11:15;;;;;;;9.82;6.35;;;14.60;99.90;;;;;;5042392;28;20033;-58
2022/09/11 07:13:41;;;;;;;10.55;5.65;;;14.70;99.90;;;;;;5040514;28;20033;-58
2022/09/11 07:16:08;;;;;;;9.32;6.85;;;14.80;99.90;;;;;;5049425;28;20021;-58
2022/09/11 07:18:35;;;;;;;10.57;6.60;;;14.90;99.90;;;;;;5031056;28;20472;-58
2022/09/11 07:21:04;;;;;;;7.28;6.50;;;14.90;99.90;;;;;;5036568;28;20028;-58
2022/09/11 07:23:29;;;;;;;13.52;6.63;;;15.00;99.90;;;;;;5044147;28;20032;-57
2022/09/11 07:25:55;;;;;;;11.43;10.10;;;15.10;99.90;;;;;;5054107;28;20439;-58
2022/09/11 07:28:25;;;;;;;12.07;9.45;;;15.10;99.90;;;;;;5046757;28;20037;-58
2022/09/11 07:30:51;;;;;;;12.68;9.27;;;15.20;99.90;;;;;;5053470;28;20376;-58
2022/09/11 07:33:24;;;;;;;11.50;9.82;;;15.30;99.90;;;;;;5054730;28;20458;-58
2022/09/11 07:35:51;;;;;;;12.57;9.25;;;15.40;99.90;;;;;;5045693;28;20035;-58
2022/09/11 07:38:30;;;;;;;13.23;8.88;;;15.60;99.90;;;;;;5053878;28;20389;-59
2022/09/11 07:40:56;;;;;;;;;;;15.60;99.90;;;;;;5053164;28;20028;-58
2022/09/11 07:43:32;;;;;;;7.88;7.07;;;15.70;99.90;;;;;;5053463;28;20265;-58
2022/09/11 07:45:58;;;;;;;11.88;8.20;;;15.70;99.90;;;;;;5048742;28;20096;-59
2022/09/11 07:48:36;;;;;;;9.48;7.72;;;15.80;99.90;;;;;;5047975;28;20099;-58
2022/09/11 07:51:08;;;;;;;16.90;14.07;;;16.00;99.90;;;;;;5054381;28;20109;-58
2022/09/11 07:54:01;;;;;;;19.25;10.90;;;16.00;99.90;;;;;;5040258;28;20121;-58
2022/09/11 07:56:41;;;;;;;10.38;9.32;;;16.10;99.90;;;;;;5054639;28;20032;-58
2022/09/11 07:59:08;;;;;;;11.52;8.80;;;16.20;99.90;;;;;;5055735;28;20056;-58
2022/09/11 08:01:33;;;;;;;10.35;9.25;;;16.20;99.90;;;;;;5055896;28;20488;-58
2022/09/11 08:04:29;;;;;;;12.90;9.88;;;16.30;99.90;;;;;;5046456;28;20029;-58
2022/09/11 08:07:17;;;;;;;11.20;9.48;;;16.40;99.90;;;;;;5047595;28;20024;-58
2022/09/11 08:10:16;;;;;;;12.30;10.98;;;16.50;99.90;;;;;;5065838;28;20017;-59
2022/09/11 08:12:44;;;;;;;12.93;10.80;;;16.60;99.90;;;;;;5050839;28;20024;-58
2022/09/11 08:15:47;;;;;;;12.10;10.77;;;16.70;99.90;;;;;;5050053;28;20075;-58
2022/09/11 08:18:16;;;;;;;13.23;11.65;;;16.80;99.90;;;;;;5055402;28;20421;-58
2022/09/11 08:20:41;;;;;;;12.82;11.43;;;16.80;99.90;;;;;;5054026;28;20047;-58
2022/09/11 08:23:08;;;;;;;13.70;11.82;;;16.90;99.90;;;;;;5051956;28;20025;-59
2022/09/11 08:25:45;;;;;;;13.68;11.77;;;17.00;99.90;;;;;;5055868;28;20017;-59
2022/09/11 08:28:34;;;;;;;12.00;10.77;;;17.10;99.90;;;;;;5066024;28;20029;-59
2022/09/11 08:31:13;;;;;;;12.52;11.07;;;17.20;99.90;;;;;;5043664;28;20141;-58
2022/09/11 08:33:56;;;;;;;14.15;12.65;;;17.30;99.90;;;;;;5053919;28;20025;-58
2022/09/11 08:36:41;;;;;;;14.27;12.35;;;17.40;99.90;;;;;;5043411;28;20033;-58
2022/09/11 08:39:07;;;;;;;13.80;12.43;;;17.60;99.90;;;;;;5060541;28;20044;-58
2022/09/11 08:41:47;;;;;;;16.08;14.38;;;17.70;99.90;;;;;;5052939;28;20439;-58
2022/09/11 08:44:26;;;;;;;19.23;17.23;;;17.80;99.90;;;;;;5056010;28;20086;-58
2022/09/11 08:46:58;;;;;;;15.35;13.10;;;17.80;99.90;;;;;;5049699;28;20029;-58
2022/09/11 08:49:39;;;;;;;13.13;11.75;;;17.90;99.90;;;;;;5049285;28;20026;-58
2022/09/11 08:52:07;;;;;;;25.30;21.75;;;18.00;99.90;;;;;;5050417;28;20028;-58
2022/09/11 08:54:36;;;;;;;19.60;17.60;;;18.00;99.90;;;;;;5046921;28;20075;-56
2022/09/11 08:57:32;;;;;;;17.83;15.93;;;18.00;99.90;;;;;;5047501;28;20025;-58
2022/09/11 09:00:09;;;;;;;16.02;14.32;;;18.20;99.90;;;;;;5049800;28;20088;-58
2022/09/11 09:03:12;;;;;;;23.98;21.38;;;18.40;99.90;;;;;;5053385;28;20020;-58
2022/09/11 09:06:03;;;;;;;18.98;16.60;;;18.50;99.90;;;;;;5052776;28;20391;-58
2022/09/11 09:09:00;;;;;;;18.73;16.83;;;18.50;99.90;;;;;;5053820;28;20070;-58
2022/09/11 09:11:43;;;;;;;16.35;14.52;;;18.60;99.90;;;;;;5032874;28;20040;-59
2022/09/11 09:14:47;;;;;;;16.20;14.57;;;18.60;99.90;;;;;;5069186;28;20060;-58
2022/09/11 09:17:19;;;;;;;15.20;13.63;;;18.70;99.90;;;;;;5028196;28;20071;-58
2022/09/11 09:19:59;;;;;;;15.68;14.07;;;18.90;99.90;;;;;;5050269;28;20449;-58
2022/09/11 09:22:49;;;;;;;17.67;15.88;;;18.90;99.90;;;;;;5055963;28;20025;-58
2022/09/11 09:25:21;;;;;;;18.27;15.43;;;19.00;99.90;;;;;;5068765;28;20079;-58
2022/09/11 09:27:50;;;;;;;18.27;16.48;;;19.00;99.90;;;;;;5053566;28;20506;-58
2022/09/11 09:30:20;;;;;;;17.35;15.57;;;19.10;99.90;;;;;;5055186;28;20025;-58
2022/09/11 09:33:01;;;;;;;16.55;14.93;;;19.20;99.90;;;;;;5053071;28;20021;-59
2022/09/11 09:35:39;;;;;;;18.92;16.98;;;19.30;99.90;;;;;;5065529;28;20500;-58
2022/09/11 09:38:13;;;;;;;19.77;17.63;;;19.50;99.90;;;;;;5056294;28;20017;-58
2022/09/11 09:41:05;;;;;;;20.70;18.50;;;19.50;99.90;;;;;;5052028;28;20477;-58
2022/09/11 09:44:16;;;;;;;17.02;15.43;;;19.50;99.90;;;;;;5053794;28;20075;-58
2022/09/11 09:46:49;;;;;;;17.73;15.93;;;19.60;99.90;;;;;;5041241;28;20078;-58
2022/09/11 09:49:26;;;;;;;13.98;12.57;;;19.70;99.90;;;;;;5061182;28;20028;-59
2022/09/11 09:51:55;;;;;;;17.90;16.20;;;19.80;99.90;;;;;;5054201;28;20027;-58
2022/09/11 09:54:25;;;;;;;17.73;16.00;;;19.80;99.90;;;;;;5058225;28;20028;-59
2022/09/11 09:57:17;;;;;;;19.40;17.45;;;19.80;99.90;;;;;;5058778;28;20032;-58
2022/09/11 09:59:50;;;;;;;19.30;17.50;;;19.80;99.90;;;;;;5050590;28;20533;-58
2022/09/11 10:02:40;;;;;;;17.17;15.48;;;19.80;99.90;;;;;;5052232;28;20078;-58
2022/09/11 10:05:42;;;;;;;17.90;16.20;;;19.90;99.90;;;;;;5047707;28;20104;-58
2022/09/11 10:08:26;;;;;;;17.25;15.65;;;19.90;98.60;;;;;;5071977;28;20481;-58
2022/09/11 10:11:05;;;;;;;16.52;14.82;;;20.00;98.40;;;;;;5052324;28;20021;-58
2022/09/11 10:13:32;;;;;;;10.93;9.83;;;20.10;98.00;;;;;;5056953;28;20032;-58
2022/09/11 10:16:03;;;;;;;12.10;10.90;;;20.30;98.10;;;;;;5059507;28;20144;-58
2022/09/11 10:18:41;;;;;;;9.95;8.95;;;20.60;97.30;;;;;;5051834;28;20025;-58
2022/09/11 10:21:29;;;;;;;7.57;6.25;;;20.70;96.60;;;;;;5054117;28;20032;-58
2022/09/11 10:24:18;;;;;;;6.43;5.82;;;21.10;96.80;;;;;;5054419;28;20484;-58
2022/09/11 10:26:49;;;;;;;5.80;4.55;;;21.50;96.60;;;;;;5050631;28;20073;-58
2022/09/11 10:29:25;;;;;;;3.53;2.92;;;21.90;96.50;;;;;;5051926;28;20029;-59
2022/09/11 10:31:55;;;;;;;4.13;3.03;;;22.40;96.00;;;;;;5053156;28;20103;-58
2022/09/11 10:34:31;;;;;;;3.15;2.75;;;22.70;95.50;;;;;;5048906;28;20040;-58
2022/09/11 10:37:22;;;;;;;4.00;3.50;;;23.10;95.20;;;;;;5047801;28;20029;-58
2022/09/11 10:39:48;;;;;;;8.23;7.43;;;23.50;94.80;;;;;;5051699;28;20559;-58
2022/09/11 10:42:27;;;;;;;7.85;6.85;;;23.60;91.80;;;;;;5064998;28;20083;-59
2022/09/11 10:45:00;;;;;;;5.25;3.38;;;23.80;91.70;;;;;;5042713;28;20087;-59
2022/09/11 10:47:27;;;;;;;7.38;6.68;;;24.20;92.60;;;;;;5050298;28;20150;-59
2022/09/11 10:50:19;;;;;;;7.93;7.22;;;24.60;89.60;;;;;;5056389;28;20053;-59
2022/09/11 10:52:56;;;;;;;4.85;3.92;;;26.20;82.20;;;;;;5040598;28;20017;-59
2022/09/11 10:55:25;;;;;;;3.67;3.28;;;28.00;78.20;;;;;;5047183;28;20035;-58
2022/09/11 10:58:03;;;;;;;6.20;5.60;;;28.30;75.70;;;;;;5044416;28;20113;-59
2022/09/11 11:00:30;;;;;;;7.22;6.53;;;28.40;68.70;;;;;;5043756;28;20032;-59
2022/09/11 11:03:05;;;;;;;6.68;5.47;;;28.10;67.00;;;;;;5055765;28;20070;-59
2022/09/11 11:06:08;;;;;;;6.75;4.82;;;28.00;67.90;;;;;;5050437;28;20026;-59
2022/09/11 11:09:01;;;;;;;6.28;5.28;;;28.90;67.30;;;;;;5050103;28;20068;-59
2022/09/11 11:12:12;;;;;;;6.43;5.93;;;31.30;60.80;;;;;;5055971;28;20099;-59
2022/09/11 11:14:49;;;;;;;6.75;5.65;;;31.60;57.70;;;;;;5014447;28;20129;-59
2022/09/11 11:17:27;;;;;;;5.72;3.38;;;32.50;56.00;;;;;;5039005;28;20044;-60
2022/09/11 11:20:16;;;;;;;2.90;2.33;;;33.30;55.20;;;;;;5044945;28;20052;-60
2022/09/11 11:22:50;;;;;;;5.72;4.50;;;35.40;54.50;;;;;;5043117;28;20381;-59
2022/09/11 11:25:26;;;;;;;2.30;2.10;;;36.80;47.60;;;;;;5045112;28;20417;-59
2022/09/11 11:28:04;;;;;;;3.58;3.28;;;36.40;48.00;;;;;;5041151;28;20110;-59
2022/09/11 11:30:46;;;;;;;2.80;2.60;;;37.40;44.90;;;;;;5049425;28;20021;-59
2022/09/11 11:33:30;;;;;;;3.80;2.80;;;36.90;43.90;;;;;;5047704;28;20485;-59
2022/09/11 11:35:56;;;;;;;1.77;1.25;;;36.70;44.00;;;;;;5038695;28;20040;-59
2022/09/11 11:38:40;;;;;;;2.75;1.08;;;37.70;45.30;;;;;;5042648;28;20400;-60
2022/09/11 11:41:13;;;;;;;1.98;1.40;;;39.80;43.90;;;;;;5050175;28;20070;-59
2022/09/11 11:43:42;;;;;;;3.00;2.17;;;41.30;41.60;;;;;;5049040;28;20372;-60
2022/09/11 11:46:14;;;;;;;4.97;2.40;;;41.50;38.70;;;;;;5050211;28;20048;-60
2022/09/11 11:48:48;;;;;;;2.30;2.10;;;40.70;37.90;;;;;;5046820;28;20029;-59
2022/09/11 11:51:26;;;;;;;2.85;2.00;;;39.60;38.70;;;;;;5042500;28;20057;-59
2022/09/11 11:53:54;;;;;;;;;;;37.80;40.90;;;;;;5047308;28;20055;-59
2022/09/11 11:56:47;;;;;;;3.38;3.03;;;36.40;43.00;;;;;;5043302;28;20574;-59
2022/09/11 11:59:18;;;;;;;2.40;2.20;;;36.10;43.70;;;;;;5046842;28;20511;-59
2022/09/11 12:01:49;;;;;;;2.72;2.38;;;35.80;44.40;;;;;;5049855;28;20021;-60
2022/09/11 12:04:34;;;;;;;2.60;2.40;;;37.00;43.90;;;;;;5050342;28;20033;-59
2022/09/11 12:07:02;;;;;;;3.47;3.17;;;37.40;42.10;;;;;;5048341;28;20029;-59
2022/09/11 12:09:30;;;;;;;2.17;1.98;;;35.30;41.80;;;;;;5049828;28;20070;-59
2022/09/11 12:12:02;;;;;;;2.50;1.75;;;34.30;44.00;;;;;;5049345;28;20028;-59
2022/09/11 12:14:34;;;;;;;1.80;1.60;;;33.00;45.70;;;;;;5050030;28;20033;-59
2022/09/11 12:17:21;;;;;;;1.75;1.48;;;32.80;47.40;;;;;;5050713;28;20393;-59
2022/09/11 12:20:16;;;;;;;2.43;1.37;;;33.10;47.80;;;;;;5055878;28;20389;-59
2022/09/11 12:22:49;;;;;;;3.10;1.88;;;32.90;47.80;;;;;;5027386;28;20029;-59
2022/09/11 12:25:20;;;;;;;2.00;1.70;;;32.80;48.10;;;;;;5037683;28;20021;-59
2022/09/11 12:27:52;;;;;;;2.95;1.85;;;32.80;48.10;;;;;;5049650;28;20017;-59
2022/09/11 12:30:17;;;;;;;3.03;2.00;;;32.80;48.30;;;;;;5050178;28;20028;-59
2022/09/11 12:32:59;;;;;;;2.05;1.48;;;32.90;48.40;;;;;;5050703;28;20029;-59
2022/09/11 12:35:33;;;;;;;2.17;1.48;;;33.10;48.20;;;;;;5049667;28;20029;-59
2022/09/11 12:38:08;;;;;;;2.03;1.65;;;33.60;48.10;;;;;;5055674;28;20025;-59
2022/09/11 12:40:58;;;;;;;3.03;2.72;;;33.90;47.50;;;;;;5052639;28;20135;-59
2022/09/11 12:43:30;;;;;;;1.85;1.40;;;34.60;45.60;;;;;;5052329;28;20388;-59
2022/09/11 12:45:55;;;;;;;1.63;1.05;;;35.50;45.80;;;;;;5054263;28;20064;-59
2022/09/11 12:48:47;;;;;;;2.33;1.48;;;37.10;45.00;;;;;;5053841;28;20048;-59
2022/09/11 12:51:26;;;;;;;2.67;1.63;;;38.30;43.30;;;;;;5053349;28;20033;-59
2022/09/11 12:53:55;;;;;;;3.47;3.17;;;39.10;42.60;;;;;;5043231;28;20062;-59
2022/09/11 12:56:24;;;;;;;3.95;2.47;;;39.60;40.30;;;;;;5046938;28;20022;-60
2022/09/11 12:58:57;;;;;;;3.83;3.15;;;37.30;39.40;;;;;;5043041;28;20025;-59
2022/09/11 13:01:30;;;;;;;3.67;2.33;;;36.00;41.60;;;;;;5042375;28;20067;-59
2022/09/11 13:04:08;;;;;;;3.42;2.72;;;35.10;42.10;;;;;;5045057;28;20049;-60
2022/09/11 13:06:53;;;;;;;2.90;1.75;;;34.00;43.70;;;;;;5048510;28;20026;-59
2022/09/11 13:09:28;;;;;;;3.90;2.20;;;33.50;45.40;;;;;;5048382;28;20029;-59
2022/09/11 13:11:56;;;;;;;4.05;3.70;;;33.90;45.00;;;;;;5054981;28;20025;-60
2022/09/11 13:14:27;;;;;;;3.95;3.30;;;33.40;45.40;;;;;;5053477;28;20108;-59
2022/09/11 13:17:22;;;;;;;2.72;2.30;;;32.20;46.00;;;;;;5054930;28;20546;-59
2022/09/11 13:19:50;;;;;;;5.13;3.22;;;31.40;47.10;;;;;;5029184;28;20033;-59
2022/09/11 13:22:27;;;;;;;2.93;2.63;;;31.90;48.00;;;;;;5049813;28;20152;-59